sensor_id;sensor_type;location;lat;lon;timestamp;P1;durP1;ratioP1;P2;durP2;ratioP2
36391;SDS011;22639;42.690;23.356;2023-01-29T00:02:10;16.67;;;10.50;;
36391;SDS011;22639;42.690;23.356;2023-01-29T00:04:35;14.70;;;9.33;;
36391;SDS011;22639;42.690;23.356;2023-01-29T00:07:01;15.17;;;8.83;;
36391;SDS011;22639;42.690;23.356;2023-01-29T00:09:29;15.90;;;11.70;;
36391;SDS011;22639;42.690;23.356;2023-01-29T00:11:55;16.77;;;10.20;;
36391;SDS011;22639;42.690;23.356;2023-01-29T00:14:21;18.07;;;9.93;;
36391;SDS011;22639;42.690;23.356;2023-01-29T00:16:46;20.07;;;11.93;;
36391;SDS011;22639;42.690;23.356;2023-01-29T00:19:11;10.83;;;8.50;;
36391;SDS011;22639;42.690;23.356;2023-01-29T00:21:36;16.43;;;9.70;;
36391;SDS011;22639;42.690;23.356;2023-01-29T00:24:08;15.27;;;8.90;;
36391;SDS011;22639;42.690;23.356;2023-01-29T00:26:33;14.53;;;9.80;;
36391;SDS011;22639;42.690;23.356;2023-01-29T00:29:09;15.70;;;10.43;;
36391;SDS011;22639;42.690;23.356;2023-01-29T00:31:34;17.10;;;8.93;;
36391;SDS011;22639;42.690;23.356;2023-01-29T00:34:00;16.17;;;10.63;;
36391;SDS011;22639;42.690;23.356;2023-01-29T00:36:25;14.37;;;9.43;;
36391;SDS011;22639;42.690;23.356;2023-01-29T00:38:57;17.10;;;10.63;;
36391;SDS011;22639;42.690;23.356;2023-01-29T00:41:22;19.87;;;11.37;;
36391;SDS011;22639;42.690;23.356;2023-01-29T00:44:06;10.40;;;7.63;;
36391;SDS011;22639;42.690;23.356;2023-01-29T00:46:50;16.97;;;10.87;;
36391;SDS011;22639;42.690;23.356;2023-01-29T00:49:16;19.10;;;12.00;;
36391;SDS011;22639;42.690;23.356;2023-01-29T00:51:41;14.30;;;10.00;;
36391;SDS011;22639;42.690;23.356;2023-01-29T00:54:06;19.40;;;11.73;;
36391;SDS011;22639;42.690;23.356;2023-01-29T00:56:32;13.43;;;9.57;;
36391;SDS011;22639;42.690;23.356;2023-01-29T00:58:58;16.40;;;9.90;;
36391;SDS011;22639;42.690;23.356;2023-01-29T01:01:23;14.10;;;9.37;;
36391;SDS011;22639;42.690;23.356;2023-01-29T01:04:09;13.67;;;9.23;;
36391;SDS011;22639;42.690;23.356;2023-01-29T01:06:38;16.23;;;11.03;;
36391;SDS011;22639;42.690;23.356;2023-01-29T01:09:03;12.30;;;9.13;;
36391;SDS011;22639;42.690;23.356;2023-01-29T01:11:47;11.87;;;8.03;;
36391;SDS011;22639;42.690;23.356;2023-01-29T01:14:12;16.20;;;10.40;;
36391;SDS011;22639;42.690;23.356;2023-01-29T01:16:38;11.43;;;8.10;;
36391;SDS011;22639;42.690;23.356;2023-01-29T01:19:03;16.10;;;9.27;;
36391;SDS011;22639;42.690;23.356;2023-01-29T01:21:29;12.27;;;8.80;;
36391;SDS011;22639;42.690;23.356;2023-01-29T01:23:54;9.10;;;6.43;;
36391;SDS011;22639;42.690;23.356;2023-01-29T01:26:19;14.23;;;10.33;;
36391;SDS011;22639;42.690;23.356;2023-01-29T01:28:44;13.90;;;5.80;;
36391;SDS011;22639;42.690;23.356;2023-01-29T01:31:10;16.43;;;10.07;;
36391;SDS011;22639;42.690;23.356;2023-01-29T01:33:36;8.47;;;6.27;;
36391;SDS011;22639;42.690;23.356;2023-01-29T01:36:02;16.67;;;10.53;;
36391;SDS011;22639;42.690;23.356;2023-01-29T01:38:27;13.90;;;9.67;;
36391;SDS011;22639;42.690;23.356;2023-01-29T01:40:52;13.97;;;9.30;;
36391;SDS011;22639;42.690;23.356;2023-01-29T01:43:17;9.53;;;8.00;;
36391;SDS011;22639;42.690;23.356;2023-01-29T01:45:43;13.83;;;8.57;;
36391;SDS011;22639;42.690;23.356;2023-01-29T01:48:18;11.33;;;7.23;;
36391;SDS011;22639;42.690;23.356;2023-01-29T01:50:48;11.57;;;8.17;;
36391;SDS011;22639;42.690;23.356;2023-01-29T01:53:21;15.83;;;9.27;;
36391;SDS011;22639;42.690;23.356;2023-01-29T01:55:48;14.37;;;9.50;;
36391;SDS011;22639;42.690;23.356;2023-01-29T01:58:17;15.47;;;8.93;;
36391;SDS011;22639;42.690;23.356;2023-01-29T02:00:45;15.83;;;10.17;;
36391;SDS011;22639;42.690;23.356;2023-01-29T02:03:10;14.80;;;8.97;;
36391;SDS011;22639;42.690;23.356;2023-01-29T02:05:55;16.03;;;9.13;;
36391;SDS011;22639;42.690;23.356;2023-01-29T02:08:48;16.90;;;10.47;;
36391;SDS011;22639;42.690;23.356;2023-01-29T02:11:35;11.87;;;8.83;;
36391;SDS011;22639;42.690;23.356;2023-01-29T02:14:00;11.23;;;8.23;;
36391;SDS011;22639;42.690;23.356;2023-01-29T02:16:25;16.33;;;10.43;;
36391;SDS011;22639;42.690;23.356;2023-01-29T02:18:51;16.30;;;10.50;;
36391;SDS011;22639;42.690;23.356;2023-01-29T02:26:32;15.63;;;10.47;;
36391;SDS011;22639;42.690;23.356;2023-01-29T02:29:06;11.60;;;8.67;;
36391;SDS011;22639;42.690;23.356;2023-01-29T02:39:27;16.90;;;11.07;;
36391;SDS011;22639;42.690;23.356;2023-01-29T02:45:21;15.10;;;10.50;;
36391;SDS011;22639;42.690;23.356;2023-01-29T02:47:34;14.70;;;9.50;;
36391;SDS011;22639;42.690;23.356;2023-01-29T02:55:02;15.10;;;10.73;;
36391;SDS011;22639;42.690;23.356;2023-01-29T02:57:32;9.53;;;7.57;;
36391;SDS011;22639;42.690;23.356;2023-01-29T03:00:41;14.90;;;10.90;;
36391;SDS011;22639;42.690;23.356;2023-01-29T03:05:44;14.33;;;9.83;;
36391;SDS011;22639;42.690;23.356;2023-01-29T03:08:09;20.40;;;11.40;;
36391;SDS011;22639;42.690;23.356;2023-01-29T03:10:39;16.67;;;10.47;;
36391;SDS011;22639;42.690;23.356;2023-01-29T03:13:11;14.73;;;10.43;;
36391;SDS011;22639;42.690;23.356;2023-01-29T03:15:39;18.23;;;12.13;;
36391;SDS011;22639;42.690;23.356;2023-01-29T03:18:11;15.30;;;9.47;;
36391;SDS011;22639;42.690;23.356;2023-01-29T03:20:42;16.00;;;10.60;;
36391;SDS011;22639;42.690;23.356;2023-01-29T03:23:14;12.67;;;8.63;;
36391;SDS011;22639;42.690;23.356;2023-01-29T03:25:41;15.30;;;10.53;;
36391;SDS011;22639;42.690;23.356;2023-01-29T03:28:26;16.53;;;10.90;;
36391;SDS011;22639;42.690;23.356;2023-01-29T03:31:11;16.23;;;10.97;;
36391;SDS011;22639;42.690;23.356;2023-01-29T03:39:04;13.40;;;9.50;;
36391;SDS011;22639;42.690;23.356;2023-01-29T03:41:32;13.77;;;8.10;;
36391;SDS011;22639;42.690;23.356;2023-01-29T03:46:40;14.80;;;10.13;;
36391;SDS011;22639;42.690;23.356;2023-01-29T03:51:43;15.67;;;9.63;;
36391;SDS011;22639;42.690;23.356;2023-01-29T03:54:32;12.83;;;8.77;;
36391;SDS011;22639;42.690;23.356;2023-01-29T03:57:02;19.70;;;10.03;;
36391;SDS011;22639;42.690;23.356;2023-01-29T04:01:55;12.47;;;9.17;;
36391;SDS011;22639;42.690;23.356;2023-01-29T04:06:50;13.20;;;9.00;;
36391;SDS011;22639;42.690;23.356;2023-01-29T04:09:39;10.10;;;8.07;;
36391;SDS011;22639;42.690;23.356;2023-01-29T04:12:06;12.80;;;9.47;;
36391;SDS011;22639;42.690;23.356;2023-01-29T04:14:33;12.97;;;8.93;;
36391;SDS011;22639;42.690;23.356;2023-01-29T04:16:59;11.77;;;7.57;;
36391;SDS011;22639;42.690;23.356;2023-01-29T04:19:30;12.63;;;8.63;;
36391;SDS011;22639;42.690;23.356;2023-01-29T04:22:05;12.87;;;9.70;;
36391;SDS011;22639;42.690;23.356;2023-01-29T04:24:31;14.93;;;9.40;;
36391;SDS011;22639;42.690;23.356;2023-01-29T04:27:04;9.10;;;6.93;;
36391;SDS011;22639;42.690;23.356;2023-01-29T04:32:02;12.63;;;8.10;;
36391;SDS011;22639;42.690;23.356;2023-01-29T04:39:52;11.63;;;7.73;;
36391;SDS011;22639;42.690;23.356;2023-01-29T04:45:09;13.10;;;8.67;;
36391;SDS011;22639;42.690;23.356;2023-01-29T04:57:36;14.80;;;9.47;;
36391;SDS011;22639;42.690;23.356;2023-01-29T05:00:05;11.70;;;8.17;;
36391;SDS011;22639;42.690;23.356;2023-01-29T05:02:33;12.50;;;8.43;;
36391;SDS011;22639;42.690;23.356;2023-01-29T05:05:00;11.50;;;7.87;;
36391;SDS011;22639;42.690;23.356;2023-01-29T05:07:25;11.60;;;8.77;;
36391;SDS011;22639;42.690;23.356;2023-01-29T05:09:52;13.70;;;8.33;;
36391;SDS011;22639;42.690;23.356;2023-01-29T05:12:18;11.10;;;7.63;;
36391;SDS011;22639;42.690;23.356;2023-01-29T05:14:44;9.90;;;6.97;;
36391;SDS011;22639;42.690;23.356;2023-01-29T05:17:14;11.30;;;8.27;;
36391;SDS011;22639;42.690;23.356;2023-01-29T05:19:42;8.27;;;5.53;;
36391;SDS011;22639;42.690;23.356;2023-01-29T05:22:08;9.63;;;7.20;;
36391;SDS011;22639;42.690;23.356;2023-01-29T05:24:35;11.47;;;8.70;;
36391;SDS011;22639;42.690;23.356;2023-01-29T05:27:00;9.30;;;7.93;;
36391;SDS011;22639;42.690;23.356;2023-01-29T05:29:45;12.03;;;7.83;;
36391;SDS011;22639;42.690;23.356;2023-01-29T05:32:10;10.40;;;7.43;;
36391;SDS011;22639;42.690;23.356;2023-01-29T05:34:35;10.53;;;8.13;;
36391;SDS011;22639;42.690;23.356;2023-01-29T05:37:01;10.90;;;7.77;;
36391;SDS011;22639;42.690;23.356;2023-01-29T05:39:26;12.80;;;9.37;;
36391;SDS011;22639;42.690;23.356;2023-01-29T05:41:52;11.53;;;7.33;;
36391;SDS011;22639;42.690;23.356;2023-01-29T05:44:17;11.00;;;7.73;;
36391;SDS011;22639;42.690;23.356;2023-01-29T05:46:42;11.67;;;8.30;;
36391;SDS011;22639;42.690;23.356;2023-01-29T05:49:08;13.17;;;8.37;;
36391;SDS011;22639;42.690;23.356;2023-01-29T05:51:34;11.83;;;8.37;;
36391;SDS011;22639;42.690;23.356;2023-01-29T05:54:00;11.47;;;8.63;;
36391;SDS011;22639;42.690;23.356;2023-01-29T05:56:25;12.37;;;7.93;;
36391;SDS011;22639;42.690;23.356;2023-01-29T05:58:51;15.97;;;8.97;;
36391;SDS011;22639;42.690;23.356;2023-01-29T06:01:17;12.53;;;7.93;;
36391;SDS011;22639;42.690;23.356;2023-01-29T06:03:43;14.00;;;10.23;;
36391;SDS011;22639;42.690;23.356;2023-01-29T06:06:09;18.07;;;9.67;;
36391;SDS011;22639;42.690;23.356;2023-01-29T06:08:34;12.03;;;8.67;;
36391;SDS011;22639;42.690;23.356;2023-01-29T06:10:59;11.73;;;7.77;;
36391;SDS011;22639;42.690;23.356;2023-01-29T06:13:25;13.23;;;8.47;;
36391;SDS011;22639;42.690;23.356;2023-01-29T06:15:50;12.63;;;9.10;;
36391;SDS011;22639;42.690;23.356;2023-01-29T06:18:15;14.60;;;9.27;;
36391;SDS011;22639;42.690;23.356;2023-01-29T06:20:41;12.23;;;9.10;;
36391;SDS011;22639;42.690;23.356;2023-01-29T06:23:06;13.07;;;8.43;;
36391;SDS011;22639;42.690;23.356;2023-01-29T06:25:31;14.70;;;9.73;;
36391;SDS011;22639;42.690;23.356;2023-01-29T06:27:56;15.23;;;9.80;;
36391;SDS011;22639;42.690;23.356;2023-01-29T06:30:21;12.30;;;8.97;;
36391;SDS011;22639;42.690;23.356;2023-01-29T06:32:47;13.57;;;9.57;;
36391;SDS011;22639;42.690;23.356;2023-01-29T06:35:12;12.93;;;10.00;;
36391;SDS011;22639;42.690;23.356;2023-01-29T06:37:37;10.83;;;7.43;;
36391;SDS011;22639;42.690;23.356;2023-01-29T06:40:03;13.90;;;9.57;;
36391;SDS011;22639;42.690;23.356;2023-01-29T06:42:28;15.70;;;10.43;;
36391;SDS011;22639;42.690;23.356;2023-01-29T06:44:54;16.57;;;10.93;;
36391;SDS011;22639;42.690;23.356;2023-01-29T06:47:19;14.53;;;10.00;;
36391;SDS011;22639;42.690;23.356;2023-01-29T06:49:44;13.67;;;10.47;;
36391;SDS011;22639;42.690;23.356;2023-01-29T06:52:10;14.93;;;11.03;;
36391;SDS011;22639;42.690;23.356;2023-01-29T06:54:35;18.23;;;11.83;;
36391;SDS011;22639;42.690;23.356;2023-01-29T06:57:00;19.03;;;11.60;;
36391;SDS011;22639;42.690;23.356;2023-01-29T06:59:25;21.30;;;13.20;;
36391;SDS011;22639;42.690;23.356;2023-01-29T07:01:51;17.63;;;11.30;;
36391;SDS011;22639;42.690;23.356;2023-01-29T07:04:16;16.23;;;11.50;;
36391;SDS011;22639;42.690;23.356;2023-01-29T07:06:41;16.23;;;11.80;;
36391;SDS011;22639;42.690;23.356;2023-01-29T07:09:06;17.67;;;11.83;;
36391;SDS011;22639;42.690;23.356;2023-01-29T07:11:33;17.50;;;12.47;;
36391;SDS011;22639;42.690;23.356;2023-01-29T07:13:58;20.53;;;13.10;;
36391;SDS011;22639;42.690;23.356;2023-01-29T07:16:23;19.20;;;13.20;;
36391;SDS011;22639;42.690;23.356;2023-01-29T07:18:50;17.93;;;12.30;;
36391;SDS011;22639;42.690;23.356;2023-01-29T07:21:15;17.47;;;12.80;;
36391;SDS011;22639;42.690;23.356;2023-01-29T07:23:40;15.17;;;12.23;;
36391;SDS011;22639;42.690;23.356;2023-01-29T07:26:06;18.67;;;11.77;;
36391;SDS011;22639;42.690;23.356;2023-01-29T07:28:35;15.73;;;10.07;;
36391;SDS011;22639;42.690;23.356;2023-01-29T07:31:01;18.63;;;12.07;;
36391;SDS011;22639;42.690;23.356;2023-01-29T07:33:26;16.03;;;11.37;;
36391;SDS011;22639;42.690;23.356;2023-01-29T07:35:52;20.13;;;12.40;;
36391;SDS011;22639;42.690;23.356;2023-01-29T07:38:17;15.93;;;9.43;;
36391;SDS011;22639;42.690;23.356;2023-01-29T07:40:42;16.40;;;11.80;;
36391;SDS011;22639;42.690;23.356;2023-01-29T07:43:08;16.43;;;12.43;;
36391;SDS011;22639;42.690;23.356;2023-01-29T07:45:34;15.20;;;10.87;;
36391;SDS011;22639;42.690;23.356;2023-01-29T07:47:59;17.17;;;11.10;;
36391;SDS011;22639;42.690;23.356;2023-01-29T07:50:25;14.80;;;10.73;;
36391;SDS011;22639;42.690;23.356;2023-01-29T07:52:59;15.77;;;11.37;;
36391;SDS011;22639;42.690;23.356;2023-01-29T07:55:49;15.50;;;11.20;;
36391;SDS011;22639;42.690;23.356;2023-01-29T07:58:15;19.70;;;12.77;;
36391;SDS011;22639;42.690;23.356;2023-01-29T08:00:40;17.60;;;12.33;;
36391;SDS011;22639;42.690;23.356;2023-01-29T08:03:06;18.97;;;12.57;;
36391;SDS011;22639;42.690;23.356;2023-01-29T08:05:32;17.13;;;12.57;;
36391;SDS011;22639;42.690;23.356;2023-01-29T08:07:57;18.37;;;12.27;;
36391;SDS011;22639;42.690;23.356;2023-01-29T08:10:23;16.13;;;9.27;;
36391;SDS011;22639;42.690;23.356;2023-01-29T08:12:58;15.33;;;10.53;;
36391;SDS011;22639;42.690;23.356;2023-01-29T08:15:24;19.37;;;12.67;;
36391;SDS011;22639;42.690;23.356;2023-01-29T08:17:50;17.53;;;12.03;;
36391;SDS011;22639;42.690;23.356;2023-01-29T08:20:15;15.33;;;10.53;;
36391;SDS011;22639;42.690;23.356;2023-01-29T08:22:41;17.73;;;11.73;;
36391;SDS011;22639;42.690;23.356;2023-01-29T08:25:06;12.03;;;8.10;;
36391;SDS011;22639;42.690;23.356;2023-01-29T08:27:31;18.40;;;12.27;;
36391;SDS011;22639;42.690;23.356;2023-01-29T08:29:58;16.23;;;11.97;;
36391;SDS011;22639;42.690;23.356;2023-01-29T08:32:23;23.83;;;11.80;;
36391;SDS011;22639;42.690;23.356;2023-01-29T08:34:49;20.07;;;12.80;;
36391;SDS011;22639;42.690;23.356;2023-01-29T08:37:14;19.50;;;12.70;;
36391;SDS011;22639;42.690;23.356;2023-01-29T08:39:40;19.60;;;12.03;;
36391;SDS011;22639;42.690;23.356;2023-01-29T08:42:08;21.13;;;11.87;;
36391;SDS011;22639;42.690;23.356;2023-01-29T08:44:33;17.53;;;11.97;;
36391;SDS011;22639;42.690;23.356;2023-01-29T08:46:58;18.90;;;13.20;;
36391;SDS011;22639;42.690;23.356;2023-01-29T08:49:24;18.60;;;12.80;;
36391;SDS011;22639;42.690;23.356;2023-01-29T08:51:49;17.90;;;12.33;;
36391;SDS011;22639;42.690;23.356;2023-01-29T08:54:15;13.10;;;8.23;;
36391;SDS011;22639;42.690;23.356;2023-01-29T08:56:40;19.43;;;10.87;;
36391;SDS011;22639;42.690;23.356;2023-01-29T08:59:06;21.30;;;12.40;;
36391;SDS011;22639;42.690;23.356;2023-01-29T09:01:31;11.57;;;7.20;;
36391;SDS011;22639;42.690;23.356;2023-01-29T09:03:56;19.67;;;12.07;;
36391;SDS011;22639;42.690;23.356;2023-01-29T09:06:21;21.83;;;14.53;;
36391;SDS011;22639;42.690;23.356;2023-01-29T09:08:47;19.30;;;12.67;;
36391;SDS011;22639;42.690;23.356;2023-01-29T09:11:13;12.67;;;8.43;;
36391;SDS011;22639;42.690;23.356;2023-01-29T09:13:39;20.03;;;12.87;;
36391;SDS011;22639;42.690;23.356;2023-01-29T09:16:04;19.40;;;13.90;;
36391;SDS011;22639;42.690;23.356;2023-01-29T09:18:30;20.10;;;13.60;;
36391;SDS011;22639;42.690;23.356;2023-01-29T09:20:55;17.80;;;13.23;;
36391;SDS011;22639;42.690;23.356;2023-01-29T09:23:21;17.07;;;12.70;;
36391;SDS011;22639;42.690;23.356;2023-01-29T09:25:46;20.77;;;14.47;;
36391;SDS011;22639;42.690;23.356;2023-01-29T09:28:12;22.23;;;14.10;;
36391;SDS011;22639;42.690;23.356;2023-01-29T09:30:37;19.10;;;14.27;;
36391;SDS011;22639;42.690;23.356;2023-01-29T09:33:05;19.07;;;12.23;;
36391;SDS011;22639;42.690;23.356;2023-01-29T09:35:31;13.80;;;10.20;;
36391;SDS011;22639;42.690;23.356;2023-01-29T09:37:57;21.50;;;13.70;;
36391;SDS011;22639;42.690;23.356;2023-01-29T09:40:23;16.73;;;12.47;;
36391;SDS011;22639;42.690;23.356;2023-01-29T09:42:51;13.37;;;9.43;;
36391;SDS011;22639;42.690;23.356;2023-01-29T09:45:22;16.43;;;9.33;;
36391;SDS011;22639;42.690;23.356;2023-01-29T09:47:48;19.70;;;13.53;;
36391;SDS011;22639;42.690;23.356;2023-01-29T09:52:45;19.20;;;13.57;;
36391;SDS011;22639;42.690;23.356;2023-01-29T09:55:21;23.60;;;14.97;;
36391;SDS011;22639;42.690;23.356;2023-01-29T09:57:50;21.30;;;14.40;;
36391;SDS011;22639;42.690;23.356;2023-01-29T10:05:22;24.83;;;14.60;;
36391;SDS011;22639;42.690;23.356;2023-01-29T10:08:35;20.60;;;13.63;;
36391;SDS011;22639;42.690;23.356;2023-01-29T10:13:14;19.13;;;12.77;;
36391;SDS011;22639;42.690;23.356;2023-01-29T10:26:00;27.20;;;18.63;;
36391;SDS011;22639;42.690;23.356;2023-01-29T10:28:33;24.17;;;17.03;;
36391;SDS011;22639;42.690;23.356;2023-01-29T10:31:20;20.43;;;13.20;;
36391;SDS011;22639;42.690;23.356;2023-01-29T10:33:48;20.57;;;14.13;;
36391;SDS011;22639;42.690;23.356;2023-01-29T10:36:16;22.13;;;13.70;;
36391;SDS011;22639;42.690;23.356;2023-01-29T10:38:43;19.50;;;13.63;;
36391;SDS011;22639;42.690;23.356;2023-01-29T10:43:38;21.57;;;13.63;;
36391;SDS011;22639;42.690;23.356;2023-01-29T10:46:11;25.43;;;14.83;;
36391;SDS011;22639;42.690;23.356;2023-01-29T10:48:50;18.20;;;12.97;;
36391;SDS011;22639;42.690;23.356;2023-01-29T10:58:48;23.90;;;14.70;;
36391;SDS011;22639;42.690;23.356;2023-01-29T11:01:15;24.00;;;14.00;;
36391;SDS011;22639;42.690;23.356;2023-01-29T11:03:40;15.17;;;9.63;;
36391;SDS011;22639;42.690;23.356;2023-01-29T11:06:19;25.63;;;15.83;;
36391;SDS011;22639;42.690;23.356;2023-01-29T11:08:53;19.50;;;13.57;;
36391;SDS011;22639;42.690;23.356;2023-01-29T11:11:20;30.77;;;16.53;;
36391;SDS011;22639;42.690;23.356;2023-01-29T11:16:21;23.30;;;13.93;;
36391;SDS011;22639;42.690;23.356;2023-01-29T11:18:51;28.10;;;15.53;;
36391;SDS011;22639;42.690;23.356;2023-01-29T11:21:17;23.60;;;14.53;;
36391;SDS011;22639;42.690;23.356;2023-01-29T11:23:42;14.73;;;10.13;;
36391;SDS011;22639;42.690;23.356;2023-01-29T11:26:09;23.63;;;15.93;;
36391;SDS011;22639;42.690;23.356;2023-01-29T11:28:36;22.20;;;15.07;;
36391;SDS011;22639;42.690;23.356;2023-01-29T11:31:02;23.87;;;15.13;;
36391;SDS011;22639;42.690;23.356;2023-01-29T11:33:27;25.43;;;14.23;;
36391;SDS011;22639;42.690;23.356;2023-01-29T11:35:52;22.60;;;13.23;;
36391;SDS011;22639;42.690;23.356;2023-01-29T11:38:26;24.93;;;15.90;;
36391;SDS011;22639;42.690;23.356;2023-01-29T11:40:51;25.90;;;15.63;;
36391;SDS011;22639;42.690;23.356;2023-01-29T11:43:18;21.13;;;15.10;;
36391;SDS011;22639;42.690;23.356;2023-01-29T11:45:44;27.47;;;15.97;;
36391;SDS011;22639;42.690;23.356;2023-01-29T11:48:15;23.87;;;15.57;;
36391;SDS011;22639;42.690;23.356;2023-01-29T11:50:41;26.10;;;11.67;;
36391;SDS011;22639;42.690;23.356;2023-01-29T11:53:17;24.30;;;14.50;;
36391;SDS011;22639;42.690;23.356;2023-01-29T11:55:45;26.17;;;16.27;;
36391;SDS011;22639;42.690;23.356;2023-01-29T11:58:12;23.50;;;15.50;;
36391;SDS011;22639;42.690;23.356;2023-01-29T12:00:40;26.43;;;15.83;;
36391;SDS011;22639;42.690;23.356;2023-01-29T12:05:36;30.00;;;18.33;;
36391;SDS011;22639;42.690;23.356;2023-01-29T12:08:02;23.20;;;14.93;;
36391;SDS011;22639;42.690;23.356;2023-01-29T12:15:39;25.77;;;16.17;;
36391;SDS011;22639;42.690;23.356;2023-01-29T12:20:37;27.33;;;17.37;;
36391;SDS011;22639;42.690;23.356;2023-01-29T12:28:20;22.50;;;14.77;;
36391;SDS011;22639;42.690;23.356;2023-01-29T12:30:47;24.43;;;15.53;;
36391;SDS011;22639;42.690;23.356;2023-01-29T12:33:36;23.17;;;15.00;;
36391;SDS011;22639;42.690;23.356;2023-01-29T12:36:06;24.97;;;15.87;;
36391;SDS011;22639;42.690;23.356;2023-01-29T12:38:34;23.07;;;12.90;;
36391;SDS011;22639;42.690;23.356;2023-01-29T12:41:05;24.00;;;15.97;;
36391;SDS011;22639;42.690;23.356;2023-01-29T12:43:37;22.23;;;14.57;;
36391;SDS011;22639;42.690;23.356;2023-01-29T12:46:07;27.00;;;17.40;;
36391;SDS011;22639;42.690;23.356;2023-01-29T12:48:35;24.30;;;15.07;;
36391;SDS011;22639;42.690;23.356;2023-01-29T12:51:10;18.63;;;13.80;;
36391;SDS011;22639;42.690;23.356;2023-01-29T12:53:54;27.17;;;14.83;;
36391;SDS011;22639;42.690;23.356;2023-01-29T12:56:31;23.83;;;14.10;;
36391;SDS011;22639;42.690;23.356;2023-01-29T12:58:59;25.00;;;13.73;;
36391;SDS011;22639;42.690;23.356;2023-01-29T13:03:52;21.80;;;14.03;;
36391;SDS011;22639;42.690;23.356;2023-01-29T13:06:30;22.80;;;14.50;;
36391;SDS011;22639;42.690;23.356;2023-01-29T13:08:59;20.77;;;13.50;;
36391;SDS011;22639;42.690;23.356;2023-01-29T13:16:39;25.40;;;15.03;;
36391;SDS011;22639;42.690;23.356;2023-01-29T13:19:40;19.07;;;12.73;;
36391;SDS011;22639;42.690;23.356;2023-01-29T13:21:58;23.30;;;13.30;;
36391;SDS011;22639;42.690;23.356;2023-01-29T13:24:24;22.63;;;14.50;;
36391;SDS011;22639;42.690;23.356;2023-01-29T13:26:51;21.27;;;13.73;;
36391;SDS011;22639;42.690;23.356;2023-01-29T13:29:21;26.70;;;10.47;;
36391;SDS011;22639;42.690;23.356;2023-01-29T13:31:47;14.53;;;9.90;;
36391;SDS011;22639;42.690;23.356;2023-01-29T13:34:13;22.93;;;13.63;;
36391;SDS011;22639;42.690;23.356;2023-01-29T13:36:46;24.93;;;14.97;;
36391;SDS011;22639;42.690;23.356;2023-01-29T13:39:18;19.63;;;12.87;;
36391;SDS011;22639;42.690;23.356;2023-01-29T13:41:44;18.63;;;13.07;;
36391;SDS011;22639;42.690;23.356;2023-01-29T13:47:04;24.80;;;14.40;;
36391;SDS011;22639;42.690;23.356;2023-01-29T13:54:50;20.37;;;13.20;;
36391;SDS011;22639;42.690;23.356;2023-01-29T14:02:46;22.93;;;15.93;;
36391;SDS011;22639;42.690;23.356;2023-01-29T14:10:27;15.63;;;10.77;;
36391;SDS011;22639;42.690;23.356;2023-01-29T14:12:53;22.00;;;14.17;;
36391;SDS011;22639;42.690;23.356;2023-01-29T14:15:29;22.40;;;13.27;;
36391;SDS011;22639;42.690;23.356;2023-01-29T14:20:31;23.50;;;13.83;;
36391;SDS011;22639;42.690;23.356;2023-01-29T14:22:57;19.73;;;12.60;;
36391;SDS011;22639;42.690;23.356;2023-01-29T14:25:28;25.63;;;16.27;;
36391;SDS011;22639;42.690;23.356;2023-01-29T14:27:55;22.57;;;13.77;;
36391;SDS011;22639;42.690;23.356;2023-01-29T14:30:21;25.57;;;14.20;;
36391;SDS011;22639;42.690;23.356;2023-01-29T14:32:47;26.53;;;14.87;;
36391;SDS011;22639;42.690;23.356;2023-01-29T14:37:57;25.77;;;15.53;;
36391;SDS011;22639;42.690;23.356;2023-01-29T14:40:24;21.53;;;13.70;;
36391;SDS011;22639;42.690;23.356;2023-01-29T14:43:07;28.03;;;16.50;;
36391;SDS011;22639;42.690;23.356;2023-01-29T14:45:33;21.40;;;14.67;;
36391;SDS011;22639;42.690;23.356;2023-01-29T14:48:00;21.40;;;15.50;;
36391;SDS011;22639;42.690;23.356;2023-01-29T14:55:58;32.90;;;20.07;;
36391;SDS011;22639;42.690;23.356;2023-01-29T15:00:51;28.87;;;18.10;;
36391;SDS011;22639;42.690;23.356;2023-01-29T15:05:55;25.57;;;16.87;;
36391;SDS011;22639;42.690;23.356;2023-01-29T15:10:57;25.20;;;16.33;;
36391;SDS011;22639;42.690;23.356;2023-01-29T15:13:53;25.93;;;14.97;;
36391;SDS011;22639;42.690;23.356;2023-01-29T15:16:23;21.90;;;14.60;;
36391;SDS011;22639;42.690;23.356;2023-01-29T15:18:50;14.70;;;10.13;;
36391;SDS011;22639;42.690;23.356;2023-01-29T15:21:17;25.70;;;14.57;;
36391;SDS011;22639;42.690;23.356;2023-01-29T15:23:43;26.13;;;15.90;;
36391;SDS011;22639;42.690;23.356;2023-01-29T15:26:16;26.93;;;16.80;;
36391;SDS011;22639;42.690;23.356;2023-01-29T15:28:42;24.63;;;14.40;;
36391;SDS011;22639;42.690;23.356;2023-01-29T15:31:10;18.67;;;11.70;;
36391;SDS011;22639;42.690;23.356;2023-01-29T15:33:37;22.93;;;12.57;;
36391;SDS011;22639;42.690;23.356;2023-01-29T15:36:05;26.10;;;14.20;;
36391;SDS011;22639;42.690;23.356;2023-01-29T15:38:30;24.13;;;15.53;;
36391;SDS011;22639;42.690;23.356;2023-01-29T15:40:59;26.70;;;16.37;;
36391;SDS011;22639;42.690;23.356;2023-01-29T15:43:29;21.73;;;13.90;;
36391;SDS011;22639;42.690;23.356;2023-01-29T15:45:59;25.73;;;13.13;;
36391;SDS011;22639;42.690;23.356;2023-01-29T15:48:33;23.90;;;14.20;;
36391;SDS011;22639;42.690;23.356;2023-01-29T15:50:59;24.23;;;15.07;;
36391;SDS011;22639;42.690;23.356;2023-01-29T15:53:27;21.97;;;12.87;;
36391;SDS011;22639;42.690;23.356;2023-01-29T15:55:53;24.53;;;15.33;;
36391;SDS011;22639;42.690;23.356;2023-01-29T15:58:22;22.77;;;14.43;;
36391;SDS011;22639;42.690;23.356;2023-01-29T16:00:49;24.53;;;14.33;;
36391;SDS011;22639;42.690;23.356;2023-01-29T16:03:15;28.40;;;15.17;;
36391;SDS011;22639;42.690;23.356;2023-01-29T16:05:40;28.77;;;15.07;;
36391;SDS011;22639;42.690;23.356;2023-01-29T16:08:06;18.43;;;11.03;;
36391;SDS011;22639;42.690;23.356;2023-01-29T16:10:36;26.43;;;14.20;;
36391;SDS011;22639;42.690;23.356;2023-01-29T16:13:02;18.87;;;11.33;;
36391;SDS011;22639;42.690;23.356;2023-01-29T16:15:36;23.77;;;14.20;;
36391;SDS011;22639;42.690;23.356;2023-01-29T16:18:23;23.87;;;13.80;;
36391;SDS011;22639;42.690;23.356;2023-01-29T16:20:51;20.33;;;13.47;;
36391;SDS011;22639;42.690;23.356;2023-01-29T16:23:18;24.93;;;15.03;;
36391;SDS011;22639;42.690;23.356;2023-01-29T16:25:44;23.17;;;13.07;;
36391;SDS011;22639;42.690;23.356;2023-01-29T16:28:10;21.03;;;13.33;;
36391;SDS011;22639;42.690;23.356;2023-01-29T16:30:35;22.67;;;13.60;;
36391;SDS011;22639;42.690;23.356;2023-01-29T16:33:04;14.80;;;9.17;;
36391;SDS011;22639;42.690;23.356;2023-01-29T16:35:30;21.77;;;12.77;;
36391;SDS011;22639;42.690;23.356;2023-01-29T16:38:00;20.17;;;13.23;;
36391;SDS011;22639;42.690;23.356;2023-01-29T16:40:28;25.90;;;17.27;;
36391;SDS011;22639;42.690;23.356;2023-01-29T16:46:10;24.27;;;15.53;;
36391;SDS011;22639;42.690;23.356;2023-01-29T16:48:39;22.30;;;15.10;;
36391;SDS011;22639;42.690;23.356;2023-01-29T16:51:05;21.67;;;12.67;;
36391;SDS011;22639;42.690;23.356;2023-01-29T16:53:36;25.73;;;16.67;;
36391;SDS011;22639;42.690;23.356;2023-01-29T16:56:02;30.13;;;17.03;;
36391;SDS011;22639;42.690;23.356;2023-01-29T16:58:28;25.63;;;16.03;;